Terminal Aerodrome Forecast
Issued by NWS

Home | Current Version | Previous Version | Text Only | Print | Product List | Glossary On
Versions: 1 2 3 4 5 6 7 8 9 10 11 12 13 14 15 16 17 18 19 20 21 22 23 24 25 26 27 28 29 30
000
FTUS43 KSGF 171800 AAA
TAFBBG
TAF AMD
KBBG 171804Z 1718/1818 21008KT P6SM -SHRA SCT040 BKN060
      TEMPO 1719/1720 VRB15KT 1SM TSRA OVC020CB
     FM172300 15005KT P6SM VCTS SCT015CB BKN100
     FM180400 VRB03KT 2SM BR SCT010 OVC100
     FM180700 VRB03KT 1/2SM FG OVC002
     FM181700 11006KT 5SM BR OVC015=

USA.gov is the U.S. government's official web portal to all federal, state and local government web resources and services.